Air Resources Laboratory banner image
Air Resources Laboratory web site National Oceanic and Atmospheric Administration (NOAA)

or metar


KAST 160855Z AUTO 29006KT 10SM FEW038 SCT048 08/04 A3034 RMK AO2 RAB25E35
 SLP274 P0000 60000 T00780044 53004=
KBKE 160853Z AUTO 16005KT 7SM M07/M09 A3010 RMK AO2 SLP227 I1000 I3001
 T10671089 58006 $=
KBNO 160853Z AUTO 24008KT 10SM FEW033 SCT060 M07/M08 A3011 RMK AO2 SNE0755
 SLP234 P0000 60000 T10671078 58003=
KCVO 160856Z AUTO 16003KT 8SM CLR M03/M03 A3038 RMK AO2 SLP292 T10281028 53007
 FZRANO=
KDLS 160853Z AUTO 21004KT 10SM CLR 06/00 A3025 RMK AO2 SLP246 T00560000 50005=
KEUG 160854Z AUTO 20005KT 9SM FEW002 M02/M02 A3038 RMK AO2 SLP290 I3001
 T10221022 53002=
KHIO 160853Z AUTO 33004KT 1/4SM R13R/2000V4000FT FZFG VV003 M03/M04 A3036 RMK
 AO2 SLP284 I1001 I3001 T10281039 51006=
KHRI 160853Z AUTO 13003KT 10SM FEW019 BKN085 M02/M02 A3022 RMK AO2 SLP240 I3001
 T10221022 53006=
KLGD 160856Z AUTO 28005KT 10SM -RA BKN037 BKN045 OVC050 01/M01 A3013 RMK AO2
 RAE0758B51UPB0758E03SNB03E51 SLP338 P0000 60000 T00061011 50003 FZRANO=
KLKV 160856Z AUTO 36011KT 10SM FEW037 BKN048 M02/M03 A3014 RMK AO2 SLP234 6////
 T10171028 51005 FZRANO PNO $=
KLMT 160853Z AUTO 31003KT 10SM CLR M02/M06 A3019 RMK AO2 SLP236 T10171061 53006=
KMEH 160856Z AUTO VRB03KT 3SM -SN BR OVC003 M01/M02 A3010 RMK AO2
 UPB40E42SNE40B42 SLP217 P0001 60020 T10111022 50003=
KMFR 160853Z AUTO 00000KT 5SM BR FEW041 00/M01 A3031 RMK AO2 SLP274 T00001006
 58001=
KMMV 160848Z AUTO 00000KT 1 1/4SM BR BKN004 M02/M02 A3037 RMK AO2 SLP285 I1000
 I3000 T10171017 53003=
KONO 160853Z AUTO 29004KT 3/4SM BR VV002 M06/M06 A3016 RMK AO2 SLP239 I1000
 I3000 T10561056 56004=
KONP 160855Z AUTO 00000KT 10SM BKN026 BKN032 OVC049 03/03 A3041 RMK AO2=
KOTH 160856Z AUTO 14005KT 1/4SM BR OVC002 03/03 A3042 RMK AO2 RAE40 SLP299
 P0000 60001 T00330033 53004 RVRNO=
KPDT 160853Z AUTO 29004KT 10SM FEW050 OVC095 00/M01 A3018 RMK AO2 SLP227 60001
 T00001006 50006=
KPDX 160853Z 11005KT 6SM BR BKN045 03/02 A3036 RMK AO2 SLP280 60000 T00330022
 53005=
KRBG 160853Z AUTO 00000KT 1/4SM FG VV001 03/03 A3039 RMK AO2 SLP294 60001
 T00280028 53004=
KRDM 160856Z AUTO 30004KT 10SM OVC055 M01/M02 A3021 RMK AO2 SLP246 T10061022
 50004=
KREO 160852Z AUTO 21003KT M02/M03 A3006 RMK AO1 SLP209 P0001 60005 T10221033
 56007=
KSLE 160856Z AUTO 17003KT 3SM BR BKN049 00/M01 A3036 RMK AO2 SLP282 I1001 I3001
 T00001011 50005=
KSPB 160853Z AUTO 30003KT 3SM BR BKN042 00/M01 A3036 RMK AO2 SLP280 60000
 T00001006 53008=
KSXT 160856Z AUTO 6SM BR BKN004 BKN007 OVC011 M01/M02 A3024 RMK AO2 SNE42
 SLP258 P0000 60000 T10061017 58002=
KTTD 160853Z AUTO 00000KT 5SM BR FEW025 SCT029 OVC045 04/03 A3036 RMK AO2
 SLP279 T00390028 53003=
KUAO 160853Z AUTO 00000KT 1/2SM FG VV005 00/M01 A3038 RMK AO2 SLP287 I1001
 I3001 T00001006 53006=